Terminal Aerodrome Forecast
Issued by NWS Bismarck, ND

Home | Current Version | Previous Version | Graphics & Text | Print | Product List | Glossary On
Versions: 1 2 3 4 5 6 7 8 9 10 11 12 13 14 15 16
000
FTUS43 KBIS 231100
TAFBIS
TAF
KBIS 231137Z 2312/2412 34016KT 4SM -SN BR OVC008
     FM231800 32016KT 6SM BR OVC012
     FM240100 31006KT P6SM OVC020
     FM240900 21005KT P6SM SCT020 SCT070=

USA.gov is the U.S. government's official web portal to all federal, state and local government web resources and services.